createdAt,value
2023-03-30T00:01:15.236Z,0.80
2023-03-30T00:03:44.143Z,1.20
2023-03-30T00:06:14.289Z,0.90
2023-03-30T00:08:42.678Z,0.80
2023-03-30T00:11:11.866Z,1.30
2023-03-30T00:13:41.544Z,1.00
2023-03-30T00:16:10.242Z,1.00
2023-03-30T00:18:39.404Z,0.97
2023-03-30T00:21:09.453Z,0.90
2023-03-30T00:23:37.822Z,1.20
2023-03-30T00:26:07.378Z,0.33
2023-03-30T00:28:35.739Z,1.23
2023-03-30T00:31:05.551Z,1.20
2023-03-30T00:33:44.721Z,1.00
2023-03-30T00:36:16.108Z,0.80
2023-03-30T00:38:45.672Z,1.00
2023-03-30T00:41:14.211Z,0.80
2023-03-30T00:43:58.303Z,1.13
2023-03-30T00:46:28.081Z,0.90
2023-03-30T00:48:57.788Z,1.13
2023-03-30T00:51:26.429Z,0.70
2023-03-30T00:53:54.882Z,0.90
2023-03-30T00:56:23.990Z,1.00
2023-03-30T00:58:52.789Z,0.53
2023-03-30T01:01:28.642Z,0.90
2023-03-30T01:03:59.531Z,1.10
2023-03-30T01:06:30.098Z,1.00
2023-03-30T01:08:59.079Z,1.33
2023-03-30T01:11:27.798Z,0.90
2023-03-30T01:13:57.364Z,0.63
2023-03-30T01:16:27.361Z,1.17
2023-03-30T01:18:57.660Z,1.17
2023-03-30T01:21:39.207Z,1.20
2023-03-30T01:24:27.762Z,1.13
2023-03-30T01:26:56.995Z,1.03
2023-03-30T01:29:27.473Z,1.20
2023-03-30T01:32:10.837Z,0.90
2023-03-30T01:34:48.034Z,0.90
2023-03-30T01:37:22.006Z,0.90
2023-03-30T01:39:53.885Z,0.70
2023-03-30T01:42:23.390Z,1.10
2023-03-30T01:44:53.851Z,0.90
2023-03-30T01:47:23.802Z,1.30
2023-03-30T01:49:55.520Z,1.07
2023-03-30T01:52:24.173Z,0.90
2023-03-30T01:54:56.767Z,1.13
2023-03-30T01:57:25.968Z,0.83
2023-03-30T01:59:55.280Z,0.80
2023-03-30T02:02:23.911Z,1.00
2023-03-30T02:04:53.847Z,0.80
2023-03-30T02:07:23.157Z,0.93
2023-03-30T02:09:51.940Z,1.40
2023-03-30T02:12:21.634Z,0.83
2023-03-30T02:14:50.030Z,1.30
2023-03-30T02:17:18.946Z,1.43
2023-03-30T02:19:47.460Z,1.53
2023-03-30T02:22:16.515Z,1.33
2023-03-30T02:24:44.831Z,1.10
2023-03-30T02:27:13.124Z,1.03
2023-03-30T02:29:42.990Z,0.87
2023-03-30T02:32:13.497Z,1.13
2023-03-30T02:34:46.796Z,1.30
2023-03-30T02:37:19.191Z,1.33
2023-03-30T02:39:51.039Z,0.70
2023-03-30T02:42:23.637Z,1.10
2023-03-30T02:44:54.467Z,1.10
2023-03-30T02:47:24.009Z,0.80
2023-03-30T02:49:56.756Z,0.70
2023-03-30T02:52:34.013Z,0.93
2023-03-30T02:55:04.755Z,0.87
2023-03-30T02:57:35.048Z,0.87
2023-03-30T03:00:08.732Z,1.37
2023-03-30T03:02:37.451Z,0.80
2023-03-30T03:05:05.926Z,1.47
2023-03-30T03:07:34.252Z,0.90
2023-03-30T03:10:02.553Z,0.80
2023-03-30T03:12:30.883Z,0.93
2023-03-30T03:15:01.878Z,1.13
2023-03-30T03:17:34.859Z,1.10
2023-03-30T03:20:04.185Z,0.77
2023-03-30T03:22:32.493Z,1.07
2023-03-30T03:25:02.512Z,0.80
2023-03-30T03:27:30.846Z,1.10
2023-03-30T03:29:59.151Z,1.00
2023-03-30T03:32:27.449Z,0.80
2023-03-30T03:34:57.280Z,0.80
2023-03-30T03:37:25.584Z,1.00
2023-03-30T03:39:53.881Z,0.90
2023-03-30T03:42:22.221Z,0.97
2023-03-30T03:44:50.711Z,0.70
2023-03-30T03:47:19.033Z,1.03
2023-03-30T03:49:47.318Z,0.73
2023-03-30T03:52:16.946Z,0.77
2023-03-30T03:54:45.268Z,1.30
2023-03-30T03:57:13.608Z,0.77
2023-03-30T03:59:41.987Z,0.90
2023-03-30T04:02:10.381Z,0.63
2023-03-30T04:04:38.743Z,1.07
2023-03-30T04:07:07.043Z,0.70
2023-03-30T04:09:36.694Z,0.93
2023-03-30T04:12:04.961Z,0.83
2023-03-30T04:14:33.472Z,0.70
2023-03-30T04:17:01.797Z,0.63
2023-03-30T04:19:31.459Z,0.80
2023-03-30T04:22:00.226Z,0.70
2023-03-30T04:24:29.824Z,0.73
2023-03-30T04:26:59.530Z,0.70
2023-03-30T04:29:29.731Z,0.97
2023-03-30T04:32:02.824Z,0.97
2023-03-30T04:34:31.394Z,0.77
2023-03-30T04:36:59.701Z,0.90
2023-03-30T04:39:30.384Z,0.93
2023-03-30T04:42:02.740Z,0.87
2023-03-30T04:44:31.346Z,0.73
2023-03-30T04:46:59.658Z,0.90
2023-03-30T04:49:28.202Z,0.80
2023-03-30T04:51:56.474Z,0.80
2023-03-30T04:54:24.735Z,0.93
2023-03-30T04:56:53.161Z,0.70
2023-03-30T04:59:22.873Z,1.13
2023-03-30T05:01:51.169Z,0.83
2023-03-30T05:04:19.434Z,1.00
2023-03-30T05:06:49.852Z,0.90
2023-03-30T05:09:18.295Z,0.67
2023-03-30T05:11:46.651Z,0.93
2023-03-30T05:14:15.808Z,0.70
2023-03-30T05:16:45.834Z,0.97
2023-03-30T05:19:14.152Z,0.97
2023-03-30T05:21:42.445Z,0.70
2023-03-30T05:24:10.745Z,0.97
2023-03-30T05:26:39.071Z,0.77
2023-03-30T05:29:07.431Z,1.03
2023-03-30T05:31:35.784Z,0.77
2023-03-30T05:34:05.562Z,0.70
2023-03-30T05:36:35.325Z,0.97
2023-03-30T05:39:05.190Z,0.67
2023-03-30T05:41:34.011Z,0.90
2023-03-30T05:44:02.344Z,1.10
2023-03-30T05:46:30.939Z,1.23
2023-03-30T05:48:59.454Z,0.83
2023-03-30T05:51:29.122Z,0.63
2023-03-30T05:53:57.395Z,1.17
2023-03-30T05:56:25.665Z,0.80
2023-03-30T05:58:53.906Z,0.80
2023-03-30T06:01:22.153Z,0.90
2023-03-30T06:03:50.533Z,0.70
2023-03-30T06:06:18.913Z,0.80
2023-03-30T06:08:49.449Z,0.80
2023-03-30T06:11:17.731Z,1.00
2023-03-30T06:13:45.989Z,0.90
2023-03-30T06:16:14.329Z,0.70
2023-03-30T06:18:42.692Z,1.10
2023-03-30T06:21:11.692Z,0.80
2023-03-30T06:23:40.917Z,0.97
2023-03-30T06:26:11.545Z,0.63
2023-03-30T06:28:39.824Z,0.43
2023-03-30T06:31:11.373Z,0.77
2023-03-30T06:33:41.749Z,0.80
2023-03-30T06:36:12.245Z,0.50
2023-03-30T06:38:41.184Z,0.60
2023-03-30T06:41:12.626Z,0.90
2023-03-30T06:43:41.171Z,0.73
2023-03-30T06:46:09.862Z,0.87
2023-03-30T06:48:38.202Z,0.83
2023-03-30T06:51:06.735Z,0.47
2023-03-30T06:53:34.972Z,0.77
2023-03-30T06:56:03.274Z,0.60
2023-03-30T06:58:34.327Z,0.77
2023-03-30T07:01:10.265Z,0.63
2023-03-30T07:03:38.612Z,0.60
2023-03-30T07:06:07.837Z,0.70
2023-03-30T07:08:36.290Z,0.90
2023-03-30T07:11:05.151Z,0.80
2023-03-30T07:13:35.285Z,1.17
2023-03-30T07:16:03.636Z,0.40
2023-03-30T07:18:32.433Z,0.90
2023-03-30T07:21:00.885Z,0.60
2023-03-30T07:23:29.350Z,1.17
2023-03-30T07:25:57.622Z,0.57
2023-03-30T07:28:26.063Z,0.70
2023-03-30T07:30:55.976Z,0.50
2023-03-30T07:33:24.845Z,0.83
2023-03-30T07:35:53.256Z,0.90
2023-03-30T07:38:21.742Z,0.47
2023-03-30T07:40:50.074Z,0.73
2023-03-30T07:43:18.376Z,0.47
2023-03-30T07:45:46.732Z,0.37
2023-03-30T07:48:16.449Z,0.63
2023-03-30T07:50:44.788Z,0.60
2023-03-30T07:53:13.097Z,0.60
2023-03-30T07:55:41.361Z,0.50
2023-03-30T07:58:09.672Z,0.40
2023-03-30T08:00:38.437Z,0.77
2023-03-30T08:03:06.811Z,0.70
2023-03-30T08:05:36.528Z,0.40
2023-03-30T08:08:04.821Z,0.50
2023-03-30T08:10:33.322Z,0.53
2023-03-30T08:13:02.553Z,0.80
2023-03-30T08:15:31.052Z,0.83
2023-03-30T08:18:04.428Z,0.93
2023-03-30T08:20:33.144Z,0.57
2023-03-30T08:23:03.009Z,0.80
2023-03-30T08:25:31.614Z,0.70
2023-03-30T08:27:59.900Z,0.73
2023-03-30T08:30:28.216Z,0.77
2023-03-30T08:32:57.053Z,0.90
2023-03-30T08:35:25.388Z,0.57
2023-03-30T08:37:53.942Z,0.70
2023-03-30T08:40:23.636Z,0.57
2023-03-30T08:42:56.777Z,0.77
2023-03-30T08:45:25.165Z,0.67
2023-03-30T08:47:54.116Z,0.60
2023-03-30T08:50:24.676Z,0.40
2023-03-30T08:52:52.954Z,0.60
2023-03-30T08:55:24.989Z,1.07
2023-03-30T08:57:53.523Z,0.70
2023-03-30T09:00:27.384Z,0.40
2023-03-30T09:02:57.322Z,0.53
2023-03-30T09:05:27.132Z,1.07
2023-03-30T09:07:57.368Z,0.83
2023-03-30T09:10:27.085Z,0.53
2023-03-30T09:12:56.560Z,0.60
2023-03-30T09:15:28.501Z,0.40
2023-03-30T09:18:00.890Z,0.47
2023-03-30T09:20:29.554Z,0.97
2023-03-30T09:22:59.484Z,0.47
2023-03-30T09:25:31.139Z,1.03
2023-03-30T09:28:00.722Z,0.80
2023-03-30T09:30:31.997Z,0.57
2023-03-30T09:33:01.182Z,0.43
2023-03-30T09:35:36.424Z,0.53
2023-03-30T09:38:05.243Z,0.60
2023-03-30T09:40:39.188Z,0.30
2023-03-30T09:43:10.641Z,0.83
2023-03-30T09:45:39.101Z,1.07
2023-03-30T09:48:08.723Z,0.70
2023-03-30T09:50:38.798Z,0.77
2023-03-30T09:53:07.476Z,1.23
2023-03-30T09:55:36.483Z,0.90
2023-03-30T09:58:17.491Z,0.50
2023-03-30T10:00:45.861Z,0.67
2023-03-30T10:03:20.980Z,0.70
2023-03-30T10:05:51.673Z,0.93
2023-03-30T10:08:22.939Z,0.40
2023-03-30T10:10:54.918Z,0.40
2023-03-30T10:13:26.346Z,0.60
2023-03-30T10:15:54.891Z,0.43
2023-03-30T10:18:25.171Z,1.03
2023-03-30T10:20:53.972Z,0.43
2023-03-30T10:23:24.581Z,0.70
2023-03-30T10:25:52.857Z,0.30
2023-03-30T10:28:21.879Z,0.43
2023-03-30T10:30:55.589Z,0.87
2023-03-30T10:33:23.994Z,0.90
2023-03-30T10:35:53.385Z,0.80
2023-03-30T10:38:21.862Z,0.83
2023-03-30T10:40:50.208Z,0.60
2023-03-30T10:43:19.552Z,0.43
2023-03-30T10:45:49.038Z,0.80
2023-03-30T10:48:25.629Z,0.80
2023-03-30T10:50:55.029Z,0.70
2023-03-30T10:53:27.395Z,0.60
2023-03-30T10:55:57.490Z,0.50
2023-03-30T10:58:28.910Z,1.13
2023-03-30T11:01:08.871Z,0.70
2023-03-30T11:03:38.668Z,0.80
2023-03-30T11:06:08.192Z,0.53
2023-03-30T11:08:37.109Z,0.70
2023-03-30T11:11:06.016Z,1.00
2023-03-30T11:13:34.718Z,0.53
2023-03-30T11:16:04.176Z,0.83
2023-03-30T11:18:34.189Z,0.30
2023-03-30T11:21:04.957Z,0.70
2023-03-30T11:23:35.997Z,0.87
2023-03-30T11:26:04.817Z,0.73
2023-03-30T11:28:38.025Z,0.57
2023-03-30T11:31:08.663Z,0.80
2023-03-30T11:33:38.056Z,1.23
2023-03-30T11:36:08.688Z,0.60
2023-03-30T11:38:41.653Z,0.80
2023-03-30T11:41:11.976Z,0.67
2023-03-30T11:43:40.250Z,0.63
2023-03-30T11:46:09.222Z,0.63
2023-03-30T11:48:56.349Z,0.80
2023-03-30T11:51:30.207Z,1.03
2023-03-30T11:53:59.791Z,0.97
2023-03-30T11:56:30.127Z,0.63
2023-03-30T11:59:04.750Z,0.80
2023-03-30T12:01:48.073Z,0.50
2023-03-30T12:04:16.840Z,0.50
2023-03-30T12:06:49.026Z,0.80
2023-03-30T12:09:24.760Z,0.70
2023-03-30T12:11:53.759Z,0.90
2023-03-30T12:14:27.390Z,0.50
2023-03-30T12:16:56.569Z,0.50
2023-03-30T12:19:25.739Z,0.60
2023-03-30T12:21:55.982Z,0.70
2023-03-30T12:24:25.524Z,1.30
2023-03-30T12:32:06.438Z,0.83
2023-03-30T12:34:36.321Z,0.50
2023-03-30T12:37:10.026Z,1.00
2023-03-30T12:39:44.856Z,0.43
2023-03-30T12:42:26.451Z,0.63
2023-03-30T12:45:13.655Z,0.83
2023-03-30T12:47:54.979Z,0.53
2023-03-30T12:50:30.136Z,1.67
2023-03-30T12:53:06.308Z,0.83
2023-03-30T12:55:36.913Z,0.70
2023-03-30T12:58:12.137Z,0.83
2023-03-30T13:00:45.937Z,0.77
2023-03-30T13:03:20.520Z,0.60
2023-03-30T13:05:51.430Z,0.80
2023-03-30T13:08:22.026Z,0.50
2023-03-30T13:10:50.492Z,0.70
2023-03-30T13:13:20.083Z,0.63
2023-03-30T13:15:49.068Z,0.60
2023-03-30T13:18:27.577Z,1.03
2023-03-30T13:21:05.658Z,0.93
2023-03-30T13:23:37.771Z,1.63
2023-03-30T13:26:07.830Z,0.90
2023-03-30T13:28:37.854Z,0.73
2023-03-30T13:31:08.671Z,0.67
2023-03-30T13:33:37.253Z,0.47
2023-03-30T13:36:07.433Z,0.83
2023-03-30T13:38:44.491Z,0.40
2023-03-30T13:41:16.204Z,0.57
2023-03-30T13:43:51.062Z,0.50
2023-03-30T13:46:21.251Z,0.60
2023-03-30T13:48:52.947Z,0.70
2023-03-30T13:51:21.512Z,1.20
2023-03-30T13:53:51.832Z,0.60
2023-03-30T13:56:20.156Z,0.47
2023-03-30T13:58:49.595Z,0.43
2023-03-30T14:01:18.179Z,0.60
2023-03-30T14:03:47.955Z,0.40
2023-03-30T14:06:17.860Z,0.40
2023-03-30T14:08:48.013Z,0.60
2023-03-30T14:11:18.566Z,0.43
2023-03-30T14:13:46.866Z,0.50
2023-03-30T14:16:15.422Z,0.77
2023-03-30T14:18:43.747Z,0.90
2023-03-30T14:21:12.737Z,1.17
2023-03-30T14:23:41.644Z,1.07
2023-03-30T14:26:15.001Z,1.03
2023-03-30T14:28:44.663Z,0.53
2023-03-30T14:31:13.926Z,0.40
2023-03-30T14:33:42.474Z,0.80
2023-03-30T14:36:12.610Z,0.83
2023-03-30T14:38:41.131Z,1.47
2023-03-30T14:41:09.867Z,1.07
2023-03-30T14:43:40.105Z,0.80
2023-03-30T14:46:12.195Z,0.43
2023-03-30T14:48:41.733Z,0.83
2023-03-30T14:51:21.217Z,0.53
2023-03-30T14:53:49.531Z,0.90
2023-03-30T14:56:18.391Z,0.63
2023-03-30T14:58:47.508Z,0.90
2023-03-30T15:01:17.599Z,0.73
2023-03-30T15:03:46.117Z,0.73
2023-03-30T15:06:16.479Z,0.77
2023-03-30T15:08:45.342Z,0.63
2023-03-30T15:11:14.063Z,0.77
2023-03-30T15:13:43.052Z,0.70
2023-03-30T15:16:11.340Z,0.57
2023-03-30T15:18:41.055Z,0.40
2023-03-30T15:21:09.376Z,0.40
2023-03-30T15:23:38.177Z,0.93
2023-03-30T15:26:06.742Z,0.73
2023-03-30T15:28:36.000Z,0.60
2023-03-30T15:31:04.548Z,0.50
2023-03-30T15:33:33.664Z,0.43
2023-03-30T15:36:05.532Z,0.60
2023-03-30T15:38:36.446Z,0.70
2023-03-30T15:41:05.288Z,0.40
2023-03-30T15:43:34.314Z,1.00
2023-03-30T15:46:03.043Z,1.03
2023-03-30T15:48:33.225Z,0.63
2023-03-30T15:51:02.881Z,0.60
2023-03-30T15:53:36.515Z,1.30
2023-03-30T15:56:06.458Z,0.50
2023-03-30T15:58:34.951Z,0.80
2023-03-30T16:01:04.371Z,0.53
2023-03-30T16:03:38.723Z,0.37
2023-03-30T16:06:07.278Z,0.37
2023-03-30T16:08:41.943Z,0.60
2023-03-30T16:11:10.835Z,0.77
2023-03-30T16:13:41.693Z,0.83
2023-03-30T16:16:11.074Z,0.77
2023-03-30T16:18:41.356Z,0.50
2023-03-30T16:21:12.398Z,0.53
2023-03-30T16:23:42.198Z,0.50
2023-03-30T16:26:11.692Z,0.50
2023-03-30T16:28:42.557Z,0.70
2023-03-30T16:31:14.128Z,0.40
2023-03-30T16:33:42.511Z,1.30
2023-03-30T16:36:12.125Z,0.80
2023-03-30T16:38:41.870Z,0.60
2023-03-30T16:41:11.245Z,0.60
2023-03-30T16:43:39.563Z,0.80
2023-03-30T16:46:07.856Z,0.70
2023-03-30T16:48:36.318Z,0.83
2023-03-30T16:51:04.952Z,0.50
2023-03-30T16:53:33.341Z,0.40
2023-03-30T16:56:03.104Z,0.60
2023-03-30T16:58:31.361Z,1.37
2023-03-30T17:01:04.264Z,1.00
2023-03-30T17:03:32.864Z,0.77
2023-03-30T17:06:01.207Z,0.70
2023-03-30T17:08:29.834Z,0.50
2023-03-30T17:10:59.668Z,0.50
2023-03-30T17:13:29.358Z,0.30
2023-03-30T17:15:58.456Z,0.53
2023-03-30T17:18:28.078Z,0.60
2023-03-30T17:20:56.430Z,0.70
2023-03-30T17:23:25.241Z,0.80
2023-03-30T17:25:53.837Z,0.50
2023-03-30T17:28:22.933Z,0.50
2023-03-30T17:30:52.845Z,0.50
2023-03-30T17:33:21.134Z,0.60
2023-03-30T17:35:50.509Z,7.03
2023-03-30T17:38:18.850Z,5.93
2023-03-30T17:40:48.555Z,5.93
2023-03-30T17:43:16.905Z,6.93
2023-03-30T17:45:46.396Z,6.03
2023-03-30T17:48:16.806Z,6.40
2023-03-30T17:50:46.135Z,8.40
2023-03-30T17:53:14.623Z,7.50
2023-03-30T17:55:43.044Z,9.90
2023-03-30T17:58:15.000Z,8.10
2023-03-30T18:00:43.352Z,7.17
2023-03-30T18:03:11.715Z,7.23
2023-03-30T18:05:41.391Z,6.07
2023-03-30T18:08:14.542Z,5.80
2023-03-30T18:10:42.967Z,6.00
2023-03-30T18:13:11.276Z,4.80
2023-03-30T18:15:39.632Z,4.53
2023-03-30T18:18:07.956Z,4.33
2023-03-30T18:20:36.537Z,3.63
2023-03-30T18:23:06.489Z,4.43
2023-03-30T18:25:34.835Z,3.77
2023-03-30T18:28:03.401Z,4.00
2023-03-30T18:30:31.981Z,4.40
2023-03-30T18:33:00.361Z,3.73
2023-03-30T18:35:29.545Z,3.33
2023-03-30T18:37:57.944Z,3.13
2023-03-30T18:40:30.029Z,3.90
2023-03-30T18:42:59.740Z,2.73
2023-03-30T18:45:28.726Z,3.03
2023-03-30T18:47:57.077Z,2.63
2023-03-30T18:50:26.073Z,2.63
2023-03-30T18:52:54.374Z,2.80
2023-03-30T18:55:22.721Z,2.10
2023-03-30T18:57:52.630Z,3.30
2023-03-30T19:00:22.038Z,2.03
2023-03-30T19:02:50.718Z,2.20
2023-03-30T19:05:19.750Z,1.83
2023-03-30T19:07:48.034Z,2.63
2023-03-30T19:10:16.850Z,2.00
2023-03-30T19:12:45.579Z,2.33
2023-03-30T19:15:20.039Z,1.97
2023-03-30T19:17:48.393Z,1.53
2023-03-30T19:20:16.805Z,1.40
2023-03-30T19:22:45.179Z,2.03
2023-03-30T19:25:13.799Z,1.53
2023-03-30T19:27:52.025Z,1.70
2023-03-30T19:30:32.295Z,1.97
2023-03-30T19:33:01.383Z,2.20
2023-03-30T19:35:29.727Z,1.83
2023-03-30T19:37:58.051Z,2.13
2023-03-30T19:40:26.615Z,1.50
2023-03-30T19:42:54.943Z,1.83
2023-03-30T19:45:23.689Z,1.23
2023-03-30T19:47:53.676Z,1.50
2023-03-30T19:50:24.846Z,1.60
2023-03-30T19:52:55.007Z,1.57
2023-03-30T19:55:23.268Z,1.00
2023-03-30T19:57:51.682Z,1.20
2023-03-30T20:00:20.533Z,1.73
2023-03-30T20:02:49.490Z,1.53
2023-03-30T20:05:19.222Z,1.73
2023-03-30T20:07:47.751Z,1.17
2023-03-30T20:10:16.955Z,1.13
2023-03-30T20:12:46.668Z,1.52
2023-03-30T20:15:15.028Z,1.10
2023-03-30T20:17:43.318Z,1.40
2023-03-30T20:20:12.768Z,1.30
2023-03-30T20:22:42.826Z,1.07
2023-03-30T20:25:11.899Z,2.10
2023-03-30T20:27:40.416Z,1.60
2023-03-30T20:30:09.215Z,1.90
2023-03-30T20:32:37.545Z,1.27
2023-03-30T20:35:06.329Z,1.00
2023-03-30T20:37:34.595Z,1.37
2023-03-30T20:40:04.963Z,1.10
2023-03-30T20:42:33.525Z,0.97
2023-03-30T20:45:01.975Z,1.33
2023-03-30T20:47:31.336Z,1.13
2023-03-30T20:49:59.817Z,1.10
2023-03-30T20:52:29.084Z,1.47
2023-03-30T20:54:57.671Z,1.47
2023-03-30T20:57:27.477Z,1.23
2023-03-30T20:59:55.964Z,1.20
2023-03-30T21:02:24.333Z,1.40
2023-03-30T21:04:53.045Z,1.27
2023-03-30T21:07:24.671Z,1.03
2023-03-30T21:09:53.094Z,1.40
2023-03-30T21:12:21.566Z,0.87
2023-03-30T21:14:51.249Z,0.70
2023-03-30T21:17:19.584Z,1.10
2023-03-30T21:19:47.875Z,0.93
2023-03-30T21:22:18.052Z,1.13
2023-03-30T21:24:46.479Z,1.33
2023-03-30T21:27:14.965Z,0.83
2023-03-30T21:29:43.275Z,1.10
2023-03-30T21:32:12.951Z,1.53
2023-03-30T21:34:41.249Z,0.90
2023-03-30T21:37:09.715Z,1.20
2023-03-30T21:39:38.106Z,0.87
2023-03-30T21:42:06.426Z,0.70
2023-03-30T21:44:35.437Z,1.33
2023-03-30T21:47:03.743Z,1.30
2023-03-30T21:49:34.184Z,0.97
2023-03-30T21:52:02.493Z,1.23
2023-03-30T21:54:30.747Z,2.10
2023-03-30T21:56:59.071Z,1.17
2023-03-30T21:59:27.386Z,1.13
2023-03-30T22:01:55.882Z,1.10
2023-03-30T22:04:24.183Z,1.13
2023-03-30T22:06:53.824Z,1.03
2023-03-30T22:09:22.152Z,1.10
2023-03-30T22:11:52.980Z,1.07
2023-03-30T22:14:21.415Z,0.93
2023-03-30T22:16:49.956Z,1.00
2023-03-30T22:19:18.978Z,1.03
2023-03-30T22:21:47.957Z,1.10
2023-03-30T22:24:18.238Z,0.70
2023-03-30T22:26:46.515Z,0.90
2023-03-30T22:29:14.841Z,0.70
2023-03-30T22:31:43.296Z,0.80
2023-03-30T22:34:11.674Z,1.17
2023-03-30T22:36:40.702Z,1.17
2023-03-30T22:39:09.128Z,0.83
2023-03-30T22:41:38.806Z,0.70
2023-03-30T22:44:07.162Z,1.33
2023-03-30T22:46:35.480Z,0.87
2023-03-30T22:49:03.762Z,1.00
2023-03-30T22:51:33.992Z,1.30
2023-03-30T22:54:02.289Z,1.43
2023-03-30T22:56:30.917Z,1.00
2023-03-30T22:59:00.851Z,1.07
2023-03-30T23:01:32.278Z,0.77
2023-03-30T23:04:01.068Z,0.90
2023-03-30T23:06:29.417Z,1.03
2023-03-30T23:08:57.716Z,1.07
2023-03-30T23:11:26.400Z,1.20
2023-03-30T23:13:54.831Z,0.90
2023-03-30T23:16:24.610Z,0.90
2023-03-30T23:18:52.912Z,0.90
2023-03-30T23:21:22.207Z,1.17
2023-03-30T23:23:50.816Z,0.87
2023-03-30T23:26:19.447Z,1.13
2023-03-30T23:28:47.815Z,0.90
2023-03-30T23:31:16.501Z,0.90
2023-03-30T23:33:46.451Z,0.97
2023-03-30T23:36:16.761Z,0.90
2023-03-30T23:38:45.543Z,0.77
2023-03-30T23:41:14.515Z,1.00
2023-03-30T23:43:42.783Z,0.90
2023-03-30T23:46:11.348Z,0.90
2023-03-30T23:48:39.737Z,0.90
2023-03-30T23:51:09.438Z,0.70
2023-03-30T23:53:41.613Z,0.70
2023-03-30T23:56:12.935Z,0.70
2023-03-30T23:58:41.581Z,1.13
